Time;durP1;ratioP1;P1;durP2;ratioP2;P2;SDS_P1;SDS_P2;PMS_P1;PMS_P2;Temp;Humidity;BMP_temperature;BMP_pressure;BME280_temperature;BME280_humidity;BME280_pressure;Samples;Min_cycle;Max_cycle;Signal;HPM_P1;HPM_P2
2024/03/09 00:00:27;;;;;;;;;72.75;53.00;;;;;-143.90;100.00;76963.00;4960051;28;103633;-72
2024/03/09 00:02:56;;;;;;;;;88.00;65.50;;;;;-143.90;100.00;76973.31;4962186;28;106635;-73
2024/03/09 00:05:24;;;;;;;;;90.00;64.25;;;;;-143.90;100.00;76971.25;4952819;28;102440;-73
2024/03/09 00:07:54;;;;;;;;;106.25;74.00;;;;;-143.90;100.00;76977.47;4965292;28;101983;-73
2024/03/09 00:10:28;;;;;;;;;97.00;70.25;;;;;-143.90;100.00;76975.41;4960305;28;103975;-72
2024/03/09 00:12:56;;;;;;;;;81.75;62.50;;;;;-143.90;100.00;76967.13;4961791;28;102577;-73
2024/03/09 00:15:24;;;;;;;;;102.50;74.25;;;;;-143.90;100.00;76977.47;4950710;28;102248;-72
2024/03/09 00:17:52;;;;;;;;;88.00;66.50;;;;;-143.90;100.00;76971.25;4960785;28;101968;-71
2024/03/09 00:20:23;;;;;;;;;82.00;60.00;;;;;-143.90;100.00;76954.72;4959796;28;105550;-72
2024/03/09 00:22:52;;;;;;;;;78.00;58.25;;;;;-143.90;100.00;76954.72;4958108;28;102387;-72
2024/03/09 00:25:23;;;;;;;;;71.75;51.25;;;;;-143.90;100.00;76940.25;4953150;28;102046;-72
2024/03/09 00:27:52;;;;;;;;;80.25;54.00;;;;;-143.90;100.00;76958.84;4963261;28;102084;-71
2024/03/09 00:30:19;;;;;;;;;81.50;57.75;;;;;-143.90;100.00;76954.72;4960860;28;103995;-72
2024/03/09 00:32:48;;;;;;;;;82.00;59.00;;;;;-143.90;100.00;76963.00;4961296;28;102423;-71
2024/03/09 00:35:16;;;;;;;;;85.00;62.00;;;;;-143.90;100.00;76963.00;4954630;28;102864;-70
2024/03/09 00:37:43;;;;;;;;;78.00;59.25;;;;;-143.90;100.00;76963.00;4964763;28;102456;-73
2024/03/09 00:40:10;;;;;;;;;75.75;59.00;;;;;-143.90;100.00;76963.00;4961074;28;104449;-71
2024/03/09 00:42:38;;;;;;;;;69.50;47.75;;;;;-143.90;100.00;76958.84;4962880;28;102421;-71
2024/03/09 00:45:06;;;;;;;;;65.25;48.75;;;;;-143.90;100.00;76963.00;4955591;28;102006;-70
2024/03/09 00:47:37;;;;;;;;;67.00;47.33;;;;;-143.90;100.00;76954.72;4961828;28;102020;-72
2024/03/09 00:50:07;;;;;;;;;54.00;46.25;;;;;-143.90;100.00;76967.13;4963180;28;104000;-71
2024/03/09 00:52:35;;;;;;;;;77.50;58.00;;;;;-143.90;100.00;76979.53;4961833;28;106204;-72
2024/03/09 00:55:10;;;;;;;;;93.75;65.25;;;;;-143.90;100.00;76981.59;4955028;28;102556;-70
2024/03/09 00:57:37;;;;;;;;;89.00;64.75;;;;;-143.90;100.00;76985.75;4964495;28;102523;-71
2024/03/09 01:00:10;;;;;;;;;88.00;63.00;;;;;-143.90;100.00;76979.53;4960764;28;104737;-72
2024/03/09 01:02:43;;;;;;;;;92.75;65.25;;;;;-143.90;100.00;76983.66;4963453;28;105147;-71
2024/03/09 01:05:10;;;;;;;;;88.75;62.25;;;;;-143.90;100.00;76979.53;4953621;28;104223;-70
2024/03/09 01:07:38;;;;;;;;;98.50;68.25;;;;;-143.90;100.00;76987.81;4962058;28;102670;-71
2024/03/09 01:10:07;;;;;;;;;101.00;70.75;;;;;-143.90;100.00;76985.75;4963150;28;104000;-70
2024/03/09 01:12:34;;;;;;;;;85.50;65.50;;;;;-143.90;100.00;76979.53;4959450;27;102444;-71
2024/03/09 01:15:03;;;;;;;;;75.50;57.00;;;;;-143.90;100.00;76979.53;4957285;28;103257;-70
2024/03/09 01:17:30;;;;;;;;;63.75;47.25;;;;;-143.90;100.00;76979.53;4958327;28;103151;-70
2024/03/09 01:19:57;;;;;;;;;71.25;52.50;;;;;-143.90;100.00;76985.75;4964139;28;104143;-69
2024/03/09 01:22:24;;;;;;;;;63.25;48.50;;;;;-143.90;100.00;76983.66;4965771;28;102387;-70
2024/03/09 01:24:52;;;;;;;;;68.50;48.00;;;;;-143.90;100.00;76977.47;4963965;28;102336;-71
2024/03/09 01:27:19;;;;;;;;;52.00;38.67;;;;;-143.90;100.00;76971.25;4952524;28;102375;-70
2024/03/09 01:29:49;;;;;;;;;55.00;42.75;;;;;-143.90;100.00;76963.00;4967816;28;104023;-69
2024/03/09 01:32:16;;;;;;;;;66.75;53.25;;;;;-143.90;100.00;76971.25;4960165;28;104940;-69
2024/03/09 01:34:42;;;;;;;;;71.75;52.00;;;;;-143.90;100.00;76963.00;4965687;28;102379;-70
2024/03/09 01:37:13;;;;;;;;;72.75;55.50;;;;;-143.90;100.00;76969.19;4958704;28;102022;-70
2024/03/09 01:39:40;;;;;;;;;66.00;54.75;;;;;-143.90;100.00;76963.00;4962031;28;104145;-70
2024/03/09 01:42:10;;;;;;;;;74.25;54.75;;;;;-143.90;100.00;76963.00;4961791;28;102638;-69
2024/03/09 01:44:36;;;;;;;;;72.75;51.00;;;;;-143.90;100.00;76963.00;4960876;28;102397;-70
2024/03/09 01:47:09;;;;;;;;;53.25;43.00;;;;;-143.90;100.00;76956.78;4956179;27;102905;-71
2024/03/09 01:49:39;;;;;;;;;74.00;54.00;;;;;-143.90;100.00;76967.13;4958096;28;104127;-70
2024/03/09 01:52:07;;;;;;;;;72.25;54.00;;;;;-143.90;100.00;76963.00;4965572;28;102492;-69
2024/03/09 01:54:34;;;;;;;;;62.00;49.00;;;;;-143.90;100.00;76954.72;4963997;28;102250;-69
2024/03/09 01:57:01;;;;;;;;;55.75;45.50;;;;;-143.90;100.00;76954.72;4963993;28;102160;-71
2024/03/09 01:59:29;;;;;;;;;61.00;49.25;;;;;-143.90;100.00;76958.84;4955539;28;104235;-70
2024/03/09 02:01:58;;;;;;;;;63.25;46.00;;;;;-143.90;100.00;76952.66;4957733;28;104641;-70
2024/03/09 02:04:28;;;;;;;;;73.75;57.25;;;;;-143.90;100.00;76967.13;4965041;28;101955;-69
2024/03/09 02:06:56;;;;;;;;;86.75;65.50;;;;;-143.90;100.00;76987.81;4964320;28;102256;-70
2024/03/09 02:09:25;;;;;;;;;94.75;69.75;;;;;-143.90;100.00;77004.34;4953889;28;103968;-70
2024/03/09 02:11:53;;;;;;;;;103.75;75.50;;;;;-143.90;100.00;77012.63;4963907;27;103128;-70
2024/03/09 02:14:20;;;;;;;;;105.25;75.00;;;;;-143.90;100.00;77008.50;4961277;28;102044;-69
2024/03/09 02:16:49;;;;;;;;;92.00;70.00;;;;;-143.90;100.00;77008.50;4965687;28;102064;-68
2024/03/09 02:19:16;;;;;;;;;92.50;64.75;;;;;-143.90;100.00;76994.00;4951497;28;108627;-68
2024/03/09 02:21:45;;;;;;;;;76.00;56.00;;;;;-143.90;100.00;76979.53;4965410;27;102628;-69
2024/03/09 02:24:21;;;;;;;;;72.25;51.50;;;;;-143.90;100.00;76977.47;4961869;28;102481;-70
2024/03/09 02:26:49;;;;;;;;;55.00;44.50;;;;;-143.90;100.00;76967.13;4961454;27;102231;-69
2024/03/09 02:29:15;;;;;;;;;76.50;56.00;;;;;-143.90;100.00;76977.47;4956460;28;104002;-69
2024/03/09 02:31:42;;;;;;;;;83.00;58.25;;;;;-143.90;100.00;76979.53;4959759;27;102141;-69
2024/03/09 02:34:09;;;;;;;;;68.50;50.25;;;;;-143.90;100.00;76977.47;4959430;28;101968;-69
2024/03/09 02:36:38;;;;;;;;;56.25;44.75;;;;;-143.90;100.00;76963.00;4955311;27;101953;-70
2024/03/09 02:39:09;;;;;;;;;65.50;46.75;;;;;-143.90;100.00;76958.84;4957080;28;104017;-69
2024/03/09 02:41:36;;;;;;;;;52.75;43.50;;;;;-143.90;100.00;76967.13;4958057;28;107721;-70
2024/03/09 02:44:04;;;;;;;;;77.50;60.00;;;;;-143.90;100.00;76971.25;4961954;27;102373;-69
2024/03/09 02:46:31;;;;;;;;;73.75;59.25;;;;;-143.90;100.00;76977.47;4962631;28;102380;-69
2024/03/09 02:48:57;;;;;;;;;68.50;52.25;;;;;-143.90;100.00;76969.19;4962466;27;104218;-69
2024/03/09 02:51:27;;;;;;;;;52.75;42.25;;;;;-143.90;100.00;76958.84;4952959;27;102699;-70
2024/03/09 02:53:53;;;;;;;;;71.00;52.25;;;;;-143.90;100.00;76963.00;4961199;28;102770;-70
2024/03/09 02:56:20;;;;;;;;;57.25;50.50;;;;;-143.90;100.00;76954.72;4963388;28;102609;-70
2024/03/09 02:58:48;;;;;;;;;50.75;43.50;;;;;-143.90;100.00;76952.66;4965151;28;103958;-68
2024/03/09 03:01:20;;;;;;;;;66.50;48.50;;;;;-143.90;100.00;76952.66;4956738;28;102464;-70
2024/03/09 03:03:56;;;;;;;;;55.67;40.00;;;;;-143.90;100.00;76944.38;4961916;28;101979;-69
2024/03/09 03:06:25;;;;;;;;;43.00;33.67;;;;;-143.90;100.00;76934.03;4962592;28;102300;-70
2024/03/09 03:09:05;;;;;;;;;52.00;39.33;;;;;-143.90;100.00;76929.91;4963074;28;104198;-69
2024/03/09 03:11:34;;;;;;;;;43.67;39.00;;;;;-143.90;100.00;76931.97;4963597;28;102505;-69
2024/03/09 03:14:01;;;;;;;;;12.33;12.33;;;;;-143.90;100.00;76923.69;4977828;28;108273;-69
2024/03/09 03:16:35;;;;;;;;;42.00;29.00;;;;;-143.90;100.00;76931.97;4962262;28;102442;-69
2024/03/09 03:19:07;;;;;;;;;39.33;29.00;;;;;-143.90;100.00;76938.16;4958590;28;104228;-69
2024/03/09 03:21:36;;;;;;;;;24.33;21.33;;;;;-143.90;100.00;76942.31;4962927;28;102498;-71
2024/03/09 03:24:03;;;;;;;;;36.67;30.00;;;;;-143.90;100.00;76938.16;4962873;28;102107;-70
2024/03/09 03:26:30;;;;;;;;;24.00;20.00;;;;;-143.90;100.00;76938.16;4965154;28;102265;-68
2024/03/09 03:28:57;;;;;;;;;28.67;25.00;;;;;-143.90;100.00;76936.09;4964107;28;104066;-69
2024/03/09 03:31:24;;;;;;;;;22.67;19.33;;;;;-143.90;100.00;76944.38;4949610;28;102196;-69
2024/03/09 03:33:51;;;;;;;;;23.33;16.00;;;;;-143.90;100.00;76934.03;4960492;28;102331;-69
2024/03/09 03:36:20;;;;;;;;;15.67;14.33;;;;;-143.90;100.00;76934.03;4963364;28;103221;-68
2024/03/09 03:38:48;;;;;;;;;28.67;23.33;;;;;-143.90;100.00;76946.44;4965530;28;104015;-69
2024/03/09 03:41:16;;;;;;;;;17.67;15.33;;;;;-143.90;100.00;76942.31;4955703;28;102882;-68
2024/03/09 03:43:44;;;;;;;;;25.33;19.67;;;;;-143.90;100.00;76938.16;4964039;28;102552;-69
2024/03/09 03:46:13;;;;;;;;;16.67;13.67;;;;;-143.90;100.00;76938.16;4963619;28;102611;-69
2024/03/09 03:48:44;;;;;;;;;23.00;16.00;;;;;-143.90;100.00;76934.03;4962633;28;104157;-69
2024/03/09 03:51:13;;;;;;;;;22.00;20.33;;;;;-143.90;100.00;76936.09;4954525;28;102944;-70
2024/03/09 03:53:40;;;;;;;;;46.00;40.00;;;;;-143.90;100.00;76944.38;4963711;28;102375;-69
2024/03/09 03:56:10;;;;;;;;;53.25;45.00;;;;;-143.90;100.00;76954.72;4964036;28;105577;-69
2024/03/09 03:58:37;;;;;;;;;46.67;34.00;;;;;-143.90;100.00;76963.00;4962736;28;105150;-70
2024/03/09 04:01:05;;;;;;;;;55.50;44.50;;;;;-143.90;100.00;76960.91;4967380;28;102449;-70
2024/03/09 04:03:33;;;;;;;;;45.75;39.50;;;;;-143.90;100.00;76960.91;4961247;28;102862;-69
2024/03/09 04:05:59;;;;;;;;;68.25;46.75;;;;;-143.90;100.00;76967.13;4962962;27;102588;-68
2024/03/09 04:08:27;;;;;;;;;64.33;45.67;;;;;-143.90;100.00;76967.13;4961425;28;104317;-68
2024/03/09 04:10:55;;;;;;;;;73.00;54.75;;;;;-143.90;100.00;76973.31;4962374;28;102348;-67
2024/03/09 04:13:23;;;;;;;;;60.50;46.75;;;;;-143.90;100.00;76971.25;4952460;28;102531;-68
2024/03/09 04:15:52;;;;;;;;;75.00;56.75;;;;;-143.90;100.00;76973.31;4956381;28;102456;-69
2024/03/09 04:18:21;;;;;;;;;72.25;55.50;;;;;-143.90;100.00;76975.41;4962658;28;104014;-69
2024/03/09 04:20:49;;;;;;;;;61.50;47.75;;;;;-143.90;100.00;76967.13;4962961;28;102670;-68
2024/03/09 04:23:18;;;;;;;;;68.50;53.00;;;;;-143.90;100.00;76973.31;4957507;28;102408;-68
2024/03/09 04:25:58;;;;;;;;;54.25;46.75;;;;;-143.90;100.00;76977.47;4963422;28;102018;-69
2024/03/09 04:28:27;;;;;;;;;61.75;45.50;;;;;-143.90;100.00;76979.53;4963551;28;108838;-69
2024/03/09 04:30:56;;;;;;;;;58.25;48.75;;;;;-143.90;100.00;76983.66;4964282;28;102359;-68
2024/03/09 04:33:24;;;;;;;;;55.50;38.00;;;;;-143.90;100.00;76979.53;4952865;28;102583;-69
2024/03/09 04:35:52;;;;;;;;;60.50;46.25;;;;;-143.90;100.00;76981.59;4963200;28;102155;-68
2024/03/09 04:38:20;;;;;;;;;49.50;39.25;;;;;-143.90;100.00;76985.75;4951339;28;103962;-68
2024/03/09 04:40:48;;;;;;;;;54.75;43.75;;;;;-143.90;100.00;76985.75;4964786;28;103598;-68
2024/03/09 04:43:18;;;;;;;;;52.25;43.25;;;;;-143.90;100.00;76983.66;4949957;28;102639;-67
2024/03/09 04:45:45;;;;;;;;;56.25;44.25;;;;;-143.90;100.00;76983.66;4963032;28;102480;-67
2024/03/09 04:48:13;;;;;;;;;35.67;31.00;;;;;-143.90;100.00;76985.75;4962084;28;108678;-68
2024/03/09 04:50:46;;;;;;;;;36.00;32.50;;;;;-143.90;100.00;76979.53;4961901;28;102445;-68
2024/03/09 04:53:15;;;;;;;;;33.33;22.67;;;;;-143.90;100.00;76979.53;4943831;28;102526;-68
2024/03/09 04:55:47;;;;;;;;;36.33;29.67;;;;;-143.90;100.00;76971.25;4965541;28;102371;-68
2024/03/09 04:58:15;;;;;;;;;37.67;32.00;;;;;-143.90;100.00;76981.59;4966665;28;108549;-68
2024/03/09 05:00:43;;;;;;;;;41.00;34.75;;;;;-143.90;100.00;76971.25;4961761;28;102358;-68
2024/03/09 05:03:16;;;;;;;;;39.67;32.33;;;;;-143.90;100.00;76971.25;4955481;28;103074;-68
2024/03/09 05:05:44;;;;;;;;;37.33;33.00;;;;;-143.90;100.00;76977.47;4964826;28;102575;-67
2024/03/09 05:08:11;;;;;;;;;40.00;28.67;;;;;-143.90;100.00;76975.41;4964287;28;105038;-69
2024/03/09 05:10:39;;;;;;;;;35.67;28.00;;;;;-143.90;100.00;76977.47;4977483;28;103333;-67
2024/03/09 05:13:08;;;;;;;;;42.67;35.67;;;;;-143.90;100.00;76987.81;4955388;28;102322;-69
2024/03/09 05:15:36;;;;;;;;;51.00;44.00;;;;;-143.90;100.00;76977.47;4967847;28;102274;-69
2024/03/09 05:18:07;;;;;;;;;53.67;43.33;;;;;-143.90;100.00;76981.59;4966380;28;103967;-69
2024/03/09 05:20:36;;;;;;;;;42.25;36.50;;;;;-143.90;100.00;76971.25;4964502;27;102318;-69
2024/03/09 05:23:03;;;;;;;;;57.25;46.75;;;;;-143.90;100.00;76973.31;4961382;28;102849;-68
2024/03/09 05:25:31;;;;;;;;;55.25;42.50;;;;;-143.90;100.00;76975.41;4964882;28;102048;-68
2024/03/09 05:27:58;;;;;;;;;53.25;43.75;;;;;-143.90;100.00;76967.13;4964917;28;102791;-68
2024/03/09 05:30:28;;;;;;;;;40.75;33.50;;;;;-143.90;100.00;76971.25;4961962;28;102417;-69
2024/03/09 05:32:59;;;;;;;;;43.75;40.00;;;;;-143.90;100.00;76958.84;4965755;28;102667;-69
2024/03/09 05:35:28;;;;;;;;;44.67;38.67;;;;;-143.90;100.00;76954.72;4962152;28;105312;-67
2024/03/09 05:37:58;;;;;;;;;63.00;48.00;;;;;-143.90;100.00;76946.44;4955366;28;103929;-67
2024/03/09 05:40:31;;;;;;;;;47.25;39.75;;;;;-143.90;100.00;76936.09;4964873;28;102373;-68
2024/03/09 05:43:01;;;;;;;;;39.67;37.67;;;;;-143.90;100.00;76931.97;4956942;28;102060;-68
2024/03/09 05:45:28;;;;;;;;;52.75;41.00;;;;;-143.90;100.00;76921.63;4961263;28;103310;-69
2024/03/09 05:47:56;;;;;;;;;52.00;43.50;;;;;-143.90;100.00;76923.69;4961355;28;104233;-69
2024/03/09 05:50:28;;;;;;;;;36.33;32.67;;;;;-143.90;100.00;76917.47;4965552;28;102066;-68
2024/03/09 05:53:01;;;;;;;;;54.67;39.33;;;;;-143.90;100.00;76905.06;4966082;28;102444;-69
2024/03/09 05:55:28;;;;;;;;;38.67;35.67;;;;;-143.90;100.00;76900.94;4960717;28;102015;-68
2024/03/09 05:57:56;;;;;;;;;21.67;18.33;;;;;-143.90;100.00;76892.66;4961334;28;103943;-68
2024/03/09 06:00:28;;;;;;;;;33.33;32.00;;;;;-143.90;100.00;76888.53;4965495;28;102164;-68
2024/03/09 06:03:01;;;;;;;;;36.33;24.67;;;;;-143.90;100.00;76871.97;4965989;28;102116;-68
2024/03/09 06:05:30;;;;;;;;;41.33;32.00;;;;;-143.90;100.00;76867.84;4960703;28;102086;-68
2024/03/09 06:07:58;;;;;;;;;43.33;36.00;;;;;-143.90;100.00;76857.50;4965287;28;103970;-68
2024/03/09 06:10:25;;;;;;;;;41.00;29.33;;;;;-143.90;100.00;76840.97;4963413;28;102926;-68
2024/03/09 06:12:52;;;;;;;;;50.00;41.67;;;;;-143.90;100.00;76826.47;4965145;28;102378;-68
2024/03/09 06:15:22;;;;;;;;;50.67;44.33;;;;;-143.90;100.00;76816.13;4957406;28;102867;-69
2024/03/09 06:17:55;;;;;;;;;57.00;46.00;;;;;-143.90;100.00;76807.88;4966433;28;103955;-69
2024/03/09 06:20:31;;;;;;;;;47.33;40.67;;;;;-143.90;100.00;76793.38;4961742;28;102349;-69
2024/03/09 06:22:58;;;;;;;;;45.00;34.33;;;;;-143.90;100.00;76772.72;4962735;28;102540;-68
2024/03/09 06:25:25;;;;;;;;;45.00;30.00;;;;;-143.90;100.00;76758.22;4954786;28;102328;-68
2024/03/09 06:27:54;;;;;;;;;40.33;36.67;;;;;-143.90;100.00;76739.63;4958441;27;104183;-68
2024/03/09 06:30:23;;;;;;;;;32.33;27.00;;;;;-143.90;100.00;76735.47;4957377;28;102191;-69
2024/03/09 06:32:57;;;;;;;;;45.33;35.67;;;;;-143.90;100.00;76721.00;4957254;28;102184;-68
2024/03/09 06:35:25;;;;;;;;;31.67;27.33;;;;;-143.90;100.00;76698.25;4948854;28;102308;-69
2024/03/09 06:38:01;;;;;;;;;27.33;23.67;;;;;-143.90;100.00;76685.84;4956356;28;104606;-68
2024/03/09 06:40:30;;;;;;;;;67.25;49.75;;;;;-143.90;100.00;76681.72;4957835;28;102129;-68
2024/03/09 06:42:59;;;;;;;;;82.00;60.50;;;;;-143.90;100.00;76665.16;4959435;28;102704;-69
2024/03/09 06:45:28;;;;;;;;;87.75;63.75;;;;;-143.90;100.00;76650.69;4955490;28;104923;-68
2024/03/09 06:47:59;;;;;;;;;70.50;53.00;;;;;-143.90;100.00;76632.06;4950922;28;104011;-68
2024/03/09 06:50:28;;;;;;;;;76.00;52.50;;;;;-143.90;100.00;76627.94;4951397;28;102372;-69
2024/03/09 06:52:54;;;;;;;;;59.50;46.50;;;;;-143.90;100.00;76607.25;4959680;28;103562;-68
2024/03/09 06:55:25;;;;;;;;;73.00;57.75;;;;;-143.90;100.00;76601.03;4952740;27;102801;-69
2024/03/09 06:57:56;;;;;;;;;66.75;51.00;;;;;-143.90;100.00;76578.31;4964301;28;104687;-69
2024/03/09 07:00:25;;;;;;;;;67.00;46.50;;;;;-143.90;100.00;76555.53;4954789;28;102337;-69
2024/03/09 07:02:52;;;;;;;;;71.50;51.75;;;;;-143.90;100.00;76530.72;4965452;28;101820;-70
2024/03/09 07:05:20;;;;;;;;;67.67;50.00;;;;;-143.90;100.00;76510.06;4945825;28;104116;-69
2024/03/09 07:07:48;;;;;;;;;44.67;40.67;;;;;-143.90;100.00;76483.16;4965582;28;104075;-71
2024/03/09 07:10:15;;;;;;;;;32.33;29.00;;;;;-143.90;100.00;76460.41;4961185;28;102446;-70
2024/03/09 07:12:41;;;;;;;;;39.67;29.00;;;;;-143.90;100.00;76437.66;4964661;28;102032;-70
2024/03/09 07:15:15;;;;;;;;;32.00;22.00;;;;;-143.90;100.00;76406.66;4954184;28;105313;-70
2024/03/09 07:17:46;;;;;;;;;23.67;21.33;;;;;-143.90;100.00;76398.38;4955878;28;108616;-70
2024/03/09 07:20:13;;;;;;;;;26.00;23.00;;;;;-143.90;100.00;76379.75;4954654;28;102406;-71
2024/03/09 07:22:41;;;;;;;;;20.00;18.67;;;;;-143.90;100.00;76365.28;4978182;28;102138;-71
2024/03/09 07:25:10;;;;;;;;;18.33;17.00;;;;;-143.90;100.00;76346.69;4946461;28;104447;-70
2024/03/09 07:27:40;;;;;;;;;18.00;14.33;;;;;-143.90;100.00;76336.34;4963684;28;104170;-71
2024/03/09 07:30:09;;;;;;;;;30.00;23.00;;;;;-143.90;100.00;76326.00;4962894;28;102828;-72
2024/03/09 07:32:37;;;;;;;;;31.67;27.33;;;;;-143.90;100.00;76305.31;4963086;28;102441;-72
2024/03/09 07:35:14;;;;;;;;;16.00;15.33;;;;;-143.90;100.00;76288.78;4959666;28;102077;-73
2024/03/09 07:37:45;;;;;;;;;31.33;26.67;;;;;-143.90;100.00;76268.09;4961494;28;104328;-72
2024/03/09 07:40:14;;;;;;;;;29.67;24.67;;;;;-143.90;100.00;76243.28;4961215;28;102755;-72
2024/03/09 07:42:42;;;;;;;;;25.33;20.67;;;;;-143.90;100.00;76232.94;4961814;28;102165;-72
2024/03/09 07:45:11;;;;;;;;;21.00;18.33;;;;;-143.90;100.00;76210.19;4955348;28;104302;-71
2024/03/09 07:48:01;;;;;;;;;30.67;23.67;;;;;-143.90;100.00;76181.25;4963115;28;104097;-73
2024/03/09 07:50:27;;;;;;;;;18.50;15.75;;;;;-143.90;100.00;76156.41;4961586;28;102141;-73
2024/03/09 07:52:56;;;;;;;;;26.00;20.50;;;;;-143.90;100.00;76133.69;4962142;28;102440;-73
2024/03/09 07:55:25;;;;;;;;;22.25;21.25;;;;;-143.90;100.00;76115.06;4954896;28;102837;-73
2024/03/09 07:57:54;;;;;;;;;66.00;51.67;;;;;-143.90;100.00;76121.28;4963178;28;104632;-73
2024/03/09 08:00:39;;;;;;;;;32.25;28.00;;;;;-143.90;100.00;76086.13;4962298;28;103927;-72
2024/03/09 08:03:06;;;;;;;;;34.67;30.00;;;;;-143.90;100.00;76059.22;4956952;28;102047;-73
2024/03/09 08:05:32;;;;;;;;;36.67;27.33;;;;;-143.90;100.00;76032.34;4962622;28;102369;-72
2024/03/09 08:08:02;;;;;;;;;55.67;43.33;;;;;-143.90;100.00;76024.06;4961441;28;104907;-72
2024/03/09 08:10:31;;;;;;;;;38.67;32.33;;;;;-143.90;100.00;75993.06;4963819;28;102703;-73
2024/03/09 08:12:59;;;;;;;;;40.25;32.50;;;;;-143.90;100.00;75959.97;4963650;28;102322;-72
2024/03/09 08:15:29;;;;;;;;;35.50;32.25;;;;;-143.90;100.00;75939.28;4954915;28;102456;-72
2024/03/09 08:17:56;;;;;;;;;34.50;27.75;;;;;-143.90;100.00;75912.41;4960065;27;103993;-73
2024/03/09 08:20:24;;;;;;;;;33.00;25.75;;;;;-143.90;100.00;75881.41;4954714;28;102070;-72
2024/03/09 08:22:50;;;;;;;;;20.00;17.50;;;;;-143.90;100.00;75856.59;4962954;28;102504;-71
2024/03/09 08:25:17;;;;;;;;;24.00;22.00;;;;;-143.90;100.00;75844.19;4955299;28;102105;-73
2024/03/09 08:27:46;;;;;;;;;22.75;18.75;;;;;-143.90;100.00;75817.31;4963048;28;108975;-72
2024/03/09 08:30:14;;;;;;;;;27.25;23.00;;;;;-143.90;100.00;75802.81;4963237;28;102523;-72
2024/03/09 08:32:44;;;;;;;;;37.00;31.25;;;;;-143.90;100.00;75784.22;4967602;28;102941;-72
2024/03/09 08:35:14;;;;;;;;;37.75;30.50;;;;;-143.90;100.00;75763.53;4953562;28;102063;-72
2024/03/09 08:37:42;;;;;;;;;27.00;23.25;;;;;-143.90;100.00;75738.72;4963172;28;104075;-73
2024/03/09 08:40:16;;;;;;;;;27.50;21.75;;;;;-143.90;100.00;75709.78;4962426;28;102603;-71
2024/03/09 08:42:51;;;;;;;;;21.75;16.00;;;;;-143.90;100.00;75689.09;4960361;28;103331;-72
2024/03/09 08:45:23;;;;;;;;;23.25;16.50;;;;;-143.90;100.00;75682.91;4954403;28;103250;-71
2024/03/09 08:47:51;;;;;;;;;18.50;16.75;;;;;-143.90;100.00;75664.28;4960056;28;108788;-70
2024/03/09 08:50:22;;;;;;;;;19.00;16.75;;;;;-143.90;100.00;75643.63;4965439;28;101926;-72
2024/03/09 08:52:49;;;;;;;;;19.75;16.75;;;;;-143.90;100.00;75610.53;4974370;28;102425;-71
2024/03/09 08:55:18;;;;;;;;;16.75;16.25;;;;;-143.90;100.00;75604.34;4956811;28;102079;-72
2024/03/09 08:57:51;;;;;;;;;18.00;13.75;;;;;-143.90;100.00;75587.78;4964655;28;108799;-72
2024/03/09 09:00:24;;;;;;;;;42.00;36.50;;;;;-143.90;100.00;75602.25;4961821;28;104304;-72
2024/03/09 09:02:56;;;;;;;;;29.25;27.50;;;;;-143.90;100.00;75569.19;4960636;28;101939;-72
2024/03/09 09:05:26;;;;;;;;;27.50;24.00;;;;;-143.90;100.00;75542.31;4947747;28;102506;-72
2024/03/09 09:07:54;;;;;;;;;25.50;21.50;;;;;-143.90;100.00;75527.81;4960501;28;104072;-71
2024/03/09 09:10:22;;;;;;;;;25.75;22.00;;;;;-143.90;100.00;75509.22;4960931;28;102463;-71
2024/03/09 09:12:49;;;;;;;;;22.00;19.50;;;;;-143.90;100.00;75494.75;4964730;28;102230;-71
2024/03/09 09:15:16;;;;;;;;;44.25;36.50;;;;;-143.90;100.00;75503.03;4954107;28;102423;-71
2024/03/09 09:17:43;;;;;;;;;34.25;33.00;;;;;-143.90;100.00;75500.94;4960140;28;103983;-72
2024/03/09 09:20:11;;;;;;;;;28.25;26.25;;;;;-143.90;100.00;75465.81;4960072;28;103019;-71
2024/03/09 09:22:46;;;;;;;;;33.25;30.00;;;;;-143.90;100.00;75445.13;4961812;28;102105;-71
2024/03/09 09:25:16;;;;;;;;;34.50;30.25;;;;;-143.90;100.00;75447.19;4952370;28;102149;-71
2024/03/09 09:27:43;;;;;;;;;35.75;33.75;;;;;-143.90;100.00;75432.72;4959283;28;103954;-73
2024/03/09 09:30:11;;;;;;;;;29.00;26.50;;;;;-143.90;100.00;75432.72;4959247;28;103786;-72
2024/03/09 09:32:40;;;;;;;;;29.25;26.50;;;;;-143.90;100.00;75407.91;4960639;28;102721;-72
2024/03/09 09:35:09;;;;;;;;;31.75;25.50;;;;;-143.90;100.00;75383.09;4953777;28;102317;-72
2024/03/09 09:37:36;;;;;;;;;19.50;19.25;;;;;-143.90;100.00;75354.16;4960017;28;104150;-72
2024/03/09 09:40:07;;;;;;;;;33.75;27.00;;;;;-143.90;100.00;75362.44;4961246;28;102334;-71
2024/03/09 09:42:35;;;;;;;;;27.50;21.00;;;;;-143.90;100.00;75329.34;4962284;28;102443;-72
2024/03/09 09:45:02;;;;;;;;;27.25;22.00;;;;;-143.90;73.07;75319.00;4959797;28;103169;-72
2024/03/09 09:47:30;;;;;;;;;26.00;21.75;;;;;-143.90;71.76;75333.47;4959653;28;104223;-72
2024/03/09 09:49:57;;;;;;;;;22.75;18.00;;;;;-143.90;69.38;75304.53;4964645;28;102583;-72
2024/03/09 09:52:24;;;;;;;;;16.75;13.25;;;;;-143.90;69.60;75273.53;4963625;28;104607;-72
2024/03/09 09:54:55;;;;;;;;;18.00;14.25;;;;;-143.90;65.45;75269.38;4966785;28;102487;-72
2024/03/09 09:57:24;;;;;;;;;13.75;12.00;;;;;-143.90;64.92;75246.66;4956589;28;104122;-72
2024/03/09 09:59:51;;;;;;;;;13.25;11.25;;;;;-143.90;66.80;75240.44;4965406;28;102388;-71
2024/03/09 10:02:21;;;;;;;;;11.00;8.75;;;;;-143.90;64.92;75217.69;4966162;28;102711;-71
2024/03/09 10:04:52;;;;;;;;;17.25;16.75;;;;;-143.90;62.64;75225.97;4967161;28;102347;-71
2024/03/09 10:07:19;;;;;;;;;19.75;15.50;;;;;-143.90;64.44;75230.09;4955288;28;107744;-71
2024/03/09 10:09:47;;;;;;;;;22.75;20.00;;;;;-143.90;63.82;75254.91;4966329;28;102182;-71
2024/03/09 10:12:22;;;;;;;;;24.00;19.00;;;;;-143.90;66.00;75228.03;4963270;28;102271;-71
2024/03/09 10:14:49;;;;;;;;;15.75;13.00;;;;;-143.90;62.74;75203.22;4965121;28;102207;-71
2024/03/09 10:17:19;;;;;;;;;11.25;11.00;;;;;-143.90;66.43;75188.75;4954696;28;108956;-73
2024/03/09 10:19:51;;;;;;;;;15.25;14.75;;;;;-143.90;60.56;75192.91;4966364;28;101823;-71
2024/03/09 10:22:18;;;;;;;;;18.50;14.75;;;;;-143.90;62.43;75186.69;4965615;28;102479;-71
2024/03/09 10:24:56;;;;;;;;;16.00;15.75;;;;;-143.90;61.17;75163.94;4963246;28;102182;-72
2024/03/09 10:27:26;;;;;;;;;20.25;18.50;;;;;-143.90;61.46;75168.09;4951863;28;110248;-71
2024/03/09 10:30:23;;;;;;;;;14.50;12.25;;;;;-143.90;59.48;75147.41;4963470;28;102260;-72
2024/03/09 10:32:51;;;;;;;;;15.75;12.50;;;;;-143.90;60.50;75135.00;4958411;28;103406;-71
2024/03/09 10:35:18;;;;;;;;;10.00;9.00;;;;;-143.90;58.19;75122.59;4956974;28;102238;-72
2024/03/09 10:37:50;;;;;;;;;15.25;12.50;;;;;-143.90;58.50;75099.88;4961872;28;108824;-72
2024/03/09 10:40:20;;;;;;;;;10.25;9.25;;;;;-143.90;57.98;75110.19;4964291;28;102455;-71
2024/03/09 10:42:49;;;;;;;;;13.50;10.50;;;;;-143.90;58.79;75091.59;4966021;28;102655;-73
2024/03/09 10:45:18;;;;;;;;;8.00;6.50;;;;;-143.90;58.59;75079.19;4953625;28;102049;-71
2024/03/09 10:47:52;;;;;;;;;9.00;9.00;;;;;-143.90;57.65;75081.25;4961674;28;106254;-71
2024/03/09 10:50:27;;;;;;;;;18.25;13.00;;;;;-143.90;59.30;75085.38;4964506;28;102164;-71
2024/03/09 10:53:09;;;;;;;;;17.00;16.00;;;;;-143.90;59.14;75097.78;4963813;28;102204;-72
2024/03/09 10:55:48;;;;;;;;;16.00;14.50;;;;;-143.90;59.56;75114.34;4965029;28;102451;-71